createdAt,value
2018-05-17T00:01:56.838Z,51.80
2018-05-17T00:04:25.285Z,56.53
2018-05-17T00:06:53.629Z,65.80
2018-05-17T00:09:22.255Z,69.07
2018-05-17T00:11:50.667Z,80.80
2018-05-17T00:14:20.075Z,82.70
2018-05-17T00:16:49.198Z,89.00
2018-05-17T00:19:17.502Z,68.53
2018-05-17T00:21:46.592Z,68.00
2018-05-17T00:24:14.875Z,93.13
2018-05-17T00:26:43.598Z,95.20
2018-05-17T00:29:11.930Z,99.37
2018-05-17T00:31:40.226Z,93.40
2018-05-17T00:34:08.522Z,83.73
2018-05-17T00:36:37.006Z,84.37
2018-05-17T00:39:05.311Z,84.87
2018-05-17T00:41:34.342Z,93.07
2018-05-17T00:44:02.695Z,87.50
2018-05-17T00:46:30.996Z,96.70
2018-05-17T00:48:59.299Z,111.43
2018-05-17T00:51:27.918Z,120.67
2018-05-17T00:53:56.582Z,99.23
2018-05-17T00:56:24.895Z,107.87
2018-05-17T00:58:53.238Z,94.77
2018-05-17T01:01:21.539Z,111.27
2018-05-17T01:03:49.594Z,90.70
2018-05-17T01:06:17.927Z,92.77
2018-05-17T01:08:46.224Z,90.83
2018-05-17T01:11:14.866Z,74.20
2018-05-17T01:13:43.966Z,75.63
2018-05-17T01:16:13.030Z,78.67
2018-05-17T01:18:42.027Z,96.13
2018-05-17T01:21:10.383Z,84.33
2018-05-17T01:23:38.995Z,88.60
2018-05-17T01:26:07.302Z,78.97
2018-05-17T01:28:35.657Z,73.93
2018-05-17T01:31:04.104Z,72.40
2018-05-17T01:33:32.391Z,68.57
2018-05-17T01:36:00.707Z,77.03
2018-05-17T01:38:29.624Z,60.43
2018-05-17T01:40:58.461Z,73.93
2018-05-17T01:43:27.659Z,81.60
2018-05-17T01:45:56.391Z,66.87
2018-05-17T01:48:24.686Z,58.87
2018-05-17T01:50:56.071Z,52.87
2018-05-17T01:53:24.370Z,51.23
2018-05-17T01:55:53.251Z,55.80
2018-05-17T01:58:21.576Z,54.63
2018-05-17T02:00:49.982Z,42.60
2018-05-17T02:03:18.550Z,85.03
2018-05-17T02:05:47.910Z,76.00
2018-05-17T02:08:16.335Z,47.63
2018-05-17T02:10:44.727Z,49.17
2018-05-17T02:13:13.103Z,51.47
2018-05-17T02:15:41.423Z,53.37
2018-05-17T02:18:10.406Z,58.50
2018-05-17T02:20:38.719Z,58.33
2018-05-17T02:23:07.695Z,54.30
2018-05-17T02:25:36.066Z,60.67
2018-05-17T02:28:04.402Z,60.70
2018-05-17T02:30:33.159Z,62.50
2018-05-17T02:33:02.266Z,66.90
2018-05-17T02:35:31.034Z,64.20
2018-05-17T02:37:59.337Z,69.37
2018-05-17T02:40:28.291Z,62.37
2018-05-17T02:42:56.594Z,62.80
2018-05-17T02:45:24.888Z,66.00
2018-05-17T02:47:53.899Z,57.70
2018-05-17T02:50:22.894Z,59.77
2018-05-17T02:52:51.491Z,54.57
2018-05-17T02:55:19.810Z,62.83
2018-05-17T02:57:48.404Z,65.00
2018-05-17T03:00:16.918Z,72.87
2018-05-17T03:02:45.263Z,87.20
2018-05-17T03:05:13.559Z,85.93
2018-05-17T03:07:41.854Z,71.93
2018-05-17T03:10:10.204Z,70.07
2018-05-17T03:12:39.219Z,88.17
2018-05-17T03:15:07.513Z,75.77
2018-05-17T03:17:36.486Z,77.37
2018-05-17T03:20:04.910Z,66.50
2018-05-17T03:22:33.271Z,83.87
2018-05-17T03:25:01.640Z,88.10
2018-05-17T03:27:29.932Z,88.97
2018-05-17T03:29:58.950Z,88.20
2018-05-17T03:32:27.774Z,95.50
2018-05-17T03:34:56.080Z,90.73
2018-05-17T03:37:24.387Z,83.30
2018-05-17T03:39:52.734Z,90.13
2018-05-17T03:42:21.179Z,92.33
2018-05-17T03:44:50.291Z,81.93
2018-05-17T03:47:19.243Z,77.23
2018-05-17T03:49:47.558Z,81.67
2018-05-17T03:52:15.851Z,84.53
2018-05-17T03:54:44.200Z,77.70
2018-05-17T03:57:12.785Z,73.97
2018-05-17T03:59:41.087Z,72.37
2018-05-17T04:15:47.591Z,58.40
2018-05-17T04:18:16.134Z,60.00
2018-05-17T04:20:44.906Z,68.47
2018-05-17T04:23:13.250Z,70.03
2018-05-17T04:25:41.547Z,64.50
2018-05-17T04:28:10.403Z,60.00
2018-05-17T04:30:38.736Z,52.50
2018-05-17T04:33:07.043Z,55.27
2018-05-17T04:35:35.431Z,59.17
2018-05-17T04:38:04.606Z,62.53
2018-05-17T04:40:33.158Z,49.43
2018-05-17T04:43:01.450Z,51.70
2018-05-17T04:45:29.885Z,49.63
2018-05-17T04:47:58.182Z,61.90
2018-05-17T04:50:26.543Z,54.10
2018-05-17T04:52:55.328Z,49.73
2018-05-17T04:55:23.862Z,43.77
2018-05-17T04:57:52.163Z,45.43
2018-05-17T05:00:20.499Z,45.77
2018-05-17T05:02:48.871Z,44.30
2018-05-17T05:05:17.234Z,44.80
2018-05-17T05:07:45.931Z,43.77
2018-05-17T05:10:14.238Z,50.10
2018-05-17T05:12:42.536Z,45.43
2018-05-17T05:15:10.873Z,48.63
2018-05-17T05:17:39.400Z,46.30
2018-05-17T05:20:07.690Z,48.83
2018-05-17T05:22:36.114Z,50.00
2018-05-17T05:25:05.759Z,43.60
2018-05-17T05:27:34.063Z,40.03
2018-05-17T05:30:02.513Z,47.10
2018-05-17T05:32:30.571Z,47.07
2018-05-17T05:34:59.619Z,39.10
2018-05-17T05:37:28.001Z,45.10
2018-05-17T05:39:56.863Z,45.07
2018-05-17T05:42:25.292Z,43.43
2018-05-17T05:44:53.656Z,45.23
2018-05-17T05:47:21.960Z,45.63
2018-05-17T05:49:50.367Z,48.93
2018-05-17T05:52:18.709Z,45.57
2018-05-17T05:54:47.713Z,49.93
2018-05-17T05:57:16.335Z,54.10
2018-05-17T05:59:44.762Z,46.73
2018-05-17T06:02:13.056Z,58.67
2018-05-17T06:04:41.346Z,59.23
2018-05-17T06:07:09.951Z,56.17
2018-05-17T06:09:40.257Z,62.43
2018-05-17T06:12:08.866Z,65.73
2018-05-17T06:14:37.304Z,64.80
2018-05-17T06:17:05.526Z,58.30
2018-05-17T06:19:33.889Z,60.07
2018-05-17T06:22:02.604Z,64.27
2018-05-17T06:24:30.963Z,60.50
2018-05-17T06:26:59.446Z,61.70
2018-05-17T06:29:27.598Z,48.17
2018-05-17T06:31:56.563Z,58.97
2018-05-17T06:34:26.015Z,56.00
2018-05-17T06:36:54.347Z,58.30
2018-05-17T06:39:22.635Z,62.10
2018-05-17T06:41:50.924Z,52.67
2018-05-17T06:44:20.446Z,50.50
2018-05-17T06:46:49.679Z,56.70
2018-05-17T06:49:17.971Z,51.23
2018-05-17T06:51:46.446Z,65.73
2018-05-17T06:54:14.742Z,58.90
2018-05-17T06:56:43.032Z,65.13
2018-05-17T06:59:11.690Z,59.33
2018-05-17T07:01:40.099Z,58.10
2018-05-17T07:04:08.387Z,65.17
2018-05-17T07:06:36.876Z,64.87
2018-05-17T07:09:05.979Z,58.87
2018-05-17T07:11:34.274Z,63.30
2018-05-17T07:14:02.613Z,62.70
2018-05-17T07:16:31.022Z,59.70
2018-05-17T07:19:00.103Z,67.33
2018-05-17T07:21:29.105Z,72.10
2018-05-17T07:23:57.903Z,66.20
2018-05-17T07:26:26.595Z,63.53
2018-05-17T07:28:55.174Z,65.07
2018-05-17T07:31:23.603Z,68.17
2018-05-17T07:33:52.154Z,56.37
2018-05-17T07:36:22.738Z,61.37
2018-05-17T07:38:51.590Z,60.10
2018-05-17T07:41:19.926Z,56.30
2018-05-17T07:43:48.670Z,57.00
2018-05-17T07:46:17.481Z,65.50
2018-05-17T07:48:45.897Z,59.37
2018-05-17T07:51:14.411Z,58.03
2018-05-17T07:53:43.791Z,60.90
2018-05-17T07:56:12.116Z,57.87
2018-05-17T07:58:40.462Z,54.93
2018-05-17T08:01:08.761Z,62.63
2018-05-17T08:03:38.083Z,49.87
2018-05-17T08:06:06.439Z,58.87
2018-05-17T08:08:34.738Z,54.27
2018-05-17T08:11:03.736Z,50.27
2018-05-17T08:13:33.479Z,52.10
2018-05-17T08:16:02.882Z,54.77
2018-05-17T08:18:32.278Z,56.80
2018-05-17T08:21:01.758Z,46.30
2018-05-17T08:23:30.123Z,52.93
2018-05-17T08:25:59.046Z,46.80
2018-05-17T08:28:27.347Z,43.73
2018-05-17T08:30:55.695Z,45.93
2018-05-17T08:33:24.264Z,48.90
2018-05-17T08:35:52.562Z,47.93
2018-05-17T08:38:22.179Z,49.03
2018-05-17T08:40:50.576Z,45.20
2018-05-17T08:43:19.330Z,42.30
2018-05-17T08:45:48.419Z,47.97
2018-05-17T08:48:18.222Z,44.87
2018-05-17T08:50:47.014Z,47.87
2018-05-17T08:53:15.811Z,46.90
2018-05-17T08:55:44.098Z,47.07
2018-05-17T08:58:12.447Z,49.90
2018-05-17T09:00:40.942Z,50.23
2018-05-17T09:03:10.032Z,51.70
2018-05-17T09:05:39.954Z,54.63
2018-05-17T09:08:09.038Z,54.50
2018-05-17T09:10:38.022Z,53.57
2018-05-17T09:13:06.375Z,56.20
2018-05-17T09:15:34.680Z,68.83
2018-05-17T09:18:03.198Z,62.47
2018-05-17T09:20:33.123Z,65.90
2018-05-17T09:23:01.587Z,68.83
2018-05-17T09:25:29.951Z,75.70
2018-05-17T09:27:58.764Z,82.43
2018-05-17T09:30:27.505Z,79.17
2018-05-17T09:32:56.631Z,76.97
2018-05-17T09:35:25.315Z,81.23
2018-05-17T09:37:53.610Z,85.90
2018-05-17T09:40:22.387Z,78.60
2018-05-17T09:42:50.682Z,76.13
2018-05-17T09:45:19.286Z,74.20
2018-05-17T09:47:48.227Z,74.33
2018-05-17T09:50:16.550Z,67.10
2018-05-17T09:52:45.387Z,70.60
2018-05-17T09:55:13.676Z,69.77
2018-05-17T09:57:41.998Z,76.23
2018-05-17T10:00:10.336Z,84.07
2018-05-17T10:02:38.956Z,73.67
2018-05-17T10:05:07.650Z,81.47
2018-05-17T10:07:35.975Z,65.23
2018-05-17T10:10:04.415Z,61.67
2018-05-17T10:12:33.585Z,62.83
2018-05-17T10:15:02.299Z,58.57
2018-05-17T10:17:30.767Z,66.97
2018-05-17T10:19:59.913Z,70.37
2018-05-17T10:22:28.607Z,80.70
2018-05-17T10:24:56.898Z,69.47
2018-05-17T10:27:27.206Z,75.97
2018-05-17T10:29:55.526Z,83.77
2018-05-17T10:32:23.838Z,70.83
2018-05-17T10:34:52.347Z,65.73
2018-05-17T10:37:21.146Z,66.30
2018-05-17T10:39:49.442Z,62.07
2018-05-17T10:42:17.964Z,57.90
2018-05-17T10:44:46.282Z,57.90
2018-05-17T10:47:15.058Z,62.80
2018-05-17T10:49:45.803Z,54.37
2018-05-17T10:52:14.795Z,59.33
2018-05-17T10:54:43.743Z,67.17
2018-05-17T10:57:12.031Z,52.23
2018-05-17T10:59:41.199Z,58.43
2018-05-17T11:02:09.751Z,52.20
2018-05-17T11:04:38.047Z,63.33
2018-05-17T11:07:06.446Z,53.37
2018-05-17T11:09:34.923Z,51.77
2018-05-17T11:12:04.363Z,46.63
2018-05-17T11:14:33.090Z,53.37
2018-05-17T11:17:01.419Z,50.60
2018-05-17T11:19:29.713Z,55.20
2018-05-17T11:21:58.130Z,48.40
2018-05-17T11:24:27.390Z,54.83
2018-05-17T11:26:55.688Z,50.73
2018-05-17T11:29:24.209Z,57.83
2018-05-17T11:31:52.505Z,47.13
2018-05-17T11:34:20.793Z,57.50
2018-05-17T11:36:49.661Z,62.73
2018-05-17T11:39:17.971Z,44.70
2018-05-17T11:41:46.259Z,50.30
2018-05-17T11:44:14.680Z,61.07
2018-05-17T11:46:42.910Z,57.33
2018-05-17T11:49:11.473Z,48.60
2018-05-17T11:51:39.802Z,47.80
2018-05-17T11:54:08.575Z,46.63
2018-05-17T11:56:36.869Z,53.20
2018-05-17T11:59:05.714Z,48.30
2018-05-17T12:01:34.015Z,45.10
2018-05-17T12:04:03.084Z,54.10
2018-05-17T12:06:32.167Z,44.13
2018-05-17T12:09:01.231Z,52.63
2018-05-17T12:11:30.289Z,49.83
2018-05-17T12:13:58.629Z,45.37
2018-05-17T12:16:26.923Z,46.37
2018-05-17T12:18:55.218Z,42.57
2018-05-17T12:21:23.547Z,42.53
2018-05-17T12:23:51.835Z,47.13
2018-05-17T12:26:20.759Z,46.77
2018-05-17T12:28:49.374Z,44.40
2018-05-17T12:31:17.671Z,49.77
2018-05-17T12:33:45.972Z,47.97
2018-05-17T12:36:14.663Z,52.20
2018-05-17T12:38:42.947Z,49.10
2018-05-17T12:41:11.234Z,43.90
2018-05-17T12:43:39.562Z,42.67
2018-05-17T12:46:09.139Z,47.23
2018-05-17T12:48:37.515Z,44.93
2018-05-17T12:51:06.249Z,54.03
2018-05-17T12:53:34.592Z,43.87
2018-05-17T12:56:03.027Z,46.03
2018-05-17T12:58:31.672Z,41.83
2018-05-17T13:01:00.682Z,42.03
2018-05-17T13:03:28.979Z,38.23
2018-05-17T13:05:57.806Z,46.67
2018-05-17T13:08:26.095Z,37.63
2018-05-17T13:10:54.459Z,41.60
2018-05-17T13:13:23.627Z,45.23
2018-05-17T13:15:52.376Z,42.63
2018-05-17T13:18:22.031Z,41.13
2018-05-17T13:20:51.439Z,39.43
2018-05-17T13:23:20.170Z,39.50
2018-05-17T13:25:49.676Z,43.37
2018-05-17T13:28:18.815Z,38.40
2018-05-17T13:30:47.750Z,40.40
2018-05-17T13:33:16.056Z,40.40
2018-05-17T13:35:44.427Z,47.47
2018-05-17T13:38:12.887Z,42.23
2018-05-17T13:40:41.688Z,35.07
2018-05-17T13:43:10.024Z,39.17
2018-05-17T13:45:38.311Z,42.13
2018-05-17T13:48:07.736Z,34.60
2018-05-17T13:50:36.199Z,39.10
2018-05-17T13:53:04.939Z,39.07
2018-05-17T13:55:33.326Z,36.60
2018-05-17T13:58:02.397Z,47.13
2018-05-17T14:00:30.694Z,44.10
2018-05-17T14:02:58.986Z,39.10
2018-05-17T14:05:27.305Z,40.43
2018-05-17T14:07:55.590Z,33.20
2018-05-17T14:10:23.879Z,36.07
2018-05-17T14:12:52.425Z,32.13
2018-05-17T14:15:21.419Z,37.33
2018-05-17T14:17:49.678Z,41.17
2018-05-17T14:20:18.811Z,37.17
2018-05-17T14:22:47.685Z,39.60
2018-05-17T14:25:15.971Z,37.97
2018-05-17T14:27:44.614Z,38.47
2018-05-17T14:30:12.910Z,40.60
2018-05-17T14:32:41.210Z,35.00
2018-05-17T14:35:09.557Z,32.23
2018-05-17T14:37:37.845Z,32.03
2018-05-17T14:40:06.147Z,32.93
2018-05-17T14:42:34.527Z,36.03
2018-05-17T14:45:02.840Z,35.80
2018-05-17T14:47:31.127Z,34.47
2018-05-17T14:49:59.458Z,38.50
2018-05-17T14:52:27.751Z,35.03
2018-05-17T14:54:56.043Z,29.67
2018-05-17T14:57:24.918Z,26.20
2018-05-17T14:59:53.210Z,31.20
2018-05-17T15:02:22.259Z,27.17
2018-05-17T15:04:51.274Z,33.50
2018-05-17T15:07:19.571Z,36.50
2018-05-17T15:09:48.643Z,33.37
2018-05-17T15:12:17.047Z,42.40
2018-05-17T15:14:45.504Z,30.43
2018-05-17T15:17:14.309Z,37.30
2018-05-17T15:19:42.645Z,30.30
2018-05-17T15:22:11.570Z,29.37
2018-05-17T15:24:39.892Z,28.33
2018-05-17T15:27:08.721Z,29.20
2018-05-17T15:29:37.151Z,35.80
2018-05-17T15:32:06.069Z,26.50
2018-05-17T15:34:34.518Z,26.57
2018-05-17T15:37:04.599Z,24.63
2018-05-17T15:39:32.872Z,24.77
2018-05-17T15:42:01.163Z,27.23
2018-05-17T15:44:29.796Z,27.60
2018-05-17T15:46:58.596Z,30.03
2018-05-17T15:49:26.899Z,26.40
2018-05-17T15:51:55.655Z,32.50
2018-05-17T15:54:24.332Z,27.73
2018-05-17T15:56:52.630Z,24.97
2018-05-17T15:59:20.931Z,25.90
2018-05-17T16:01:50.304Z,28.97
2018-05-17T16:04:18.646Z,24.30
2018-05-17T16:06:47.696Z,25.23
2018-05-17T16:09:16.514Z,31.67
2018-05-17T16:11:44.819Z,32.30
2018-05-17T16:14:13.162Z,30.00
2018-05-17T16:16:41.447Z,27.97
2018-05-17T16:19:09.735Z,29.70
2018-05-17T16:21:38.835Z,26.70
2018-05-17T16:24:09.071Z,27.53
2018-05-17T16:26:37.368Z,25.20
2018-05-17T16:29:05.708Z,32.73
2018-05-17T16:31:34.267Z,26.07
2018-05-17T16:34:02.554Z,23.10
2018-05-17T16:36:30.859Z,27.17
2018-05-17T16:39:00.558Z,24.17
2018-05-17T16:41:28.859Z,31.03
2018-05-17T16:43:57.187Z,26.80
2018-05-17T16:46:25.650Z,19.37
2018-05-17T16:48:53.939Z,17.90
2018-05-17T16:51:22.270Z,16.27
2018-05-17T16:53:50.962Z,21.27
2018-05-17T16:56:25.294Z,21.57
2018-05-17T16:58:53.581Z,20.47
2018-05-17T17:01:21.932Z,13.97
2018-05-17T17:03:50.262Z,20.77
2018-05-17T17:06:18.806Z,20.53
2018-05-17T17:08:47.666Z,19.87
2018-05-17T17:11:15.982Z,21.13
2018-05-17T17:13:44.267Z,16.87
2018-05-17T17:16:12.586Z,21.70
2018-05-17T17:18:41.668Z,16.00
2018-05-17T17:21:10.566Z,17.50
2018-05-17T17:23:38.862Z,31.57
2018-05-17T17:26:07.488Z,17.23
2018-05-17T17:28:36.233Z,26.80
2018-05-17T17:31:04.590Z,19.57
2018-05-17T17:33:32.967Z,22.60
2018-05-17T17:36:01.251Z,16.40
2018-05-17T17:38:30.089Z,21.80
2018-05-17T17:40:59.151Z,30.37
2018-05-17T17:43:28.394Z,20.30
2018-05-17T17:45:56.711Z,19.63
2018-05-17T17:48:24.997Z,20.97
2018-05-17T17:50:53.295Z,17.23
2018-05-17T17:53:21.626Z,46.40
2018-05-17T17:55:50.618Z,26.87
2018-05-17T17:58:19.732Z,28.57
2018-05-17T18:00:48.025Z,18.57
2018-05-17T18:03:16.318Z,18.30
2018-05-17T18:05:45.122Z,26.43
2018-05-17T18:08:13.430Z,19.93
2018-05-17T18:10:41.730Z,16.60
2018-05-17T18:13:10.104Z,17.37
2018-05-17T18:15:38.397Z,23.40
2018-05-17T18:18:07.499Z,24.27
2018-05-17T18:20:36.618Z,20.00
2018-05-17T18:23:05.451Z,23.63
2018-05-17T18:25:33.741Z,18.63
2018-05-17T18:28:02.086Z,21.07
2018-05-17T18:30:30.715Z,21.63
2018-05-17T18:32:59.486Z,25.00
2018-05-17T18:35:27.839Z,20.70
2018-05-17T18:37:56.291Z,27.83
2018-05-17T18:40:25.163Z,19.23
2018-05-17T18:42:53.711Z,27.90
2018-05-17T18:45:23.178Z,34.03
2018-05-17T18:47:51.559Z,21.17
2018-05-17T18:50:19.972Z,34.37
2018-05-17T18:52:48.280Z,24.37
2018-05-17T18:55:22.914Z,25.10
2018-05-17T18:57:45.674Z,32.97
2018-05-17T19:00:13.982Z,31.47
2018-05-17T19:02:42.709Z,23.27
2018-05-17T19:05:10.948Z,24.37
2018-05-17T19:07:39.234Z,24.23
2018-05-17T19:10:07.571Z,32.77
2018-05-17T19:12:37.104Z,27.80
2018-05-17T19:15:05.401Z,30.30
2018-05-17T19:17:34.207Z,30.43
2018-05-17T19:20:02.560Z,24.93
2018-05-17T19:22:30.859Z,26.33
2018-05-17T19:24:59.275Z,26.13
2018-05-17T19:27:27.930Z,29.57
2018-05-17T19:29:56.227Z,33.47
2018-05-17T19:32:24.820Z,34.00
2018-05-17T19:34:53.113Z,33.47
2018-05-17T19:37:21.493Z,26.07
2018-05-17T19:39:49.866Z,30.27
2018-05-17T19:42:18.150Z,31.27
2018-05-17T19:44:46.462Z,35.63
2018-05-17T19:47:14.817Z,32.80
2018-05-17T19:49:43.119Z,34.83
2018-05-17T19:52:11.581Z,36.90
2018-05-17T19:54:39.948Z,36.73
2018-05-17T19:57:08.274Z,38.67
2018-05-17T19:59:36.733Z,37.17
2018-05-17T20:02:05.003Z,49.23
2018-05-17T20:04:33.423Z,37.00
2018-05-17T20:07:02.834Z,38.70
2018-05-17T20:09:31.270Z,38.10
2018-05-17T20:11:59.923Z,47.53
2018-05-17T20:14:28.399Z,43.20
2018-05-17T20:16:56.776Z,36.93
2018-05-17T20:19:25.359Z,47.83
2018-05-17T20:21:54.208Z,54.60
2018-05-17T20:24:22.631Z,50.53
2018-05-17T20:26:50.923Z,48.13
2018-05-17T20:29:19.257Z,36.07
2018-05-17T20:31:48.061Z,52.03
2018-05-17T20:34:16.387Z,44.80
2018-05-17T20:36:44.748Z,56.00
2018-05-17T20:39:13.819Z,68.40
2018-05-17T20:41:42.175Z,52.17
2018-05-17T20:44:10.554Z,51.20
2018-05-17T20:46:39.435Z,40.53
2018-05-17T20:49:07.719Z,41.83
2018-05-17T20:51:36.781Z,44.13
2018-05-17T20:54:05.078Z,51.77
2018-05-17T20:56:33.654Z,50.40
2018-05-17T20:59:02.255Z,57.00
2018-05-17T21:01:31.163Z,50.30
2018-05-17T21:04:00.405Z,54.73
2018-05-17T21:06:28.718Z,50.53
2018-05-17T21:08:57.071Z,46.17
2018-05-17T21:11:25.392Z,51.53
2018-05-17T21:13:53.747Z,41.30
2018-05-17T21:16:22.255Z,55.97
2018-05-17T21:18:50.599Z,46.47
2018-05-17T21:21:18.883Z,55.43
2018-05-17T21:23:47.438Z,57.10
2018-05-17T21:26:15.767Z,69.00
2018-05-17T21:28:44.276Z,71.13
2018-05-17T21:31:12.562Z,56.13
2018-05-17T21:33:40.904Z,56.73
2018-05-17T21:36:09.201Z,73.20
2018-05-17T21:38:37.526Z,63.27
2018-05-17T21:41:06.588Z,70.50
2018-05-17T21:43:35.320Z,75.30
2018-05-17T21:46:03.601Z,61.87
2018-05-17T21:48:31.932Z,85.03
2018-05-17T21:51:01.038Z,80.03
2018-05-17T21:53:29.598Z,93.60
2018-05-17T21:55:57.882Z,88.67
2018-05-17T21:58:32.060Z,87.70
2018-05-17T22:01:00.918Z,101.50
2018-05-17T22:03:29.223Z,99.23
2018-05-17T22:05:57.511Z,98.27
2018-05-17T22:08:26.689Z,100.13
2018-05-17T22:10:54.970Z,101.87
2018-05-17T22:13:23.267Z,91.97
2018-05-17T22:15:51.670Z,98.63
2018-05-17T22:18:19.958Z,100.67
2018-05-17T22:20:48.280Z,84.83
2018-05-17T22:23:16.635Z,104.60
2018-05-17T22:25:44.981Z,75.83
2018-05-17T22:28:13.266Z,92.53
2018-05-17T22:30:41.582Z,91.23
2018-05-17T22:33:09.858Z,90.70
2018-05-17T22:35:38.159Z,96.37
2018-05-17T22:38:06.538Z,88.13
2018-05-17T22:40:34.867Z,99.07
2018-05-17T22:43:03.147Z,90.77
2018-05-17T22:45:31.478Z,84.43
2018-05-17T22:47:59.762Z,92.77
2018-05-17T22:50:28.812Z,102.50
2018-05-17T22:52:56.995Z,98.77
2018-05-17T22:55:25.547Z,94.77
2018-05-17T22:58:11.619Z,112.43
2018-05-17T23:00:39.906Z,99.13
2018-05-17T23:03:08.838Z,118.07
2018-05-17T23:05:37.210Z,79.77
2018-05-17T23:08:05.607Z,93.63
2018-05-17T23:10:33.895Z,84.40
2018-05-17T23:13:02.115Z,101.90
2018-05-17T23:15:30.425Z,102.90
2018-05-17T23:17:58.714Z,110.83
2018-05-17T23:20:27.051Z,141.40
2018-05-17T23:22:55.336Z,137.13
2018-05-17T23:25:24.050Z,115.50
2018-05-17T23:27:52.683Z,124.10
2018-05-17T23:30:20.900Z,105.23
2018-05-17T23:32:49.228Z,114.23
2018-05-17T23:35:18.488Z,132.83
2018-05-17T23:37:46.774Z,103.80
2018-05-17T23:53:42.415Z,105.13
2018-05-17T23:56:10.743Z,129.30
2018-05-17T23:58:39.037Z,116.67
